Escuadrón de Caza Nº41

La primera comunidad de pilotos y soldados virtuales del Perú.
 
EC41EC41  ÍndiceÍndice  BuscarBuscar  RegistrarseRegistrarse  ConectarseConectarse  

Comparte | 
 

 1ro - Sudamérica - Chile

Ver el tema anterior Ver el tema siguiente Ir abajo 
Ir a la página : Precedente  1, 2
AutorMensaje
gbender
Recluta
Recluta
avatar

Mensajes : 44
Fecha de inscripción : 11/04/2013

Masculino


MensajeTema: Re: 1ro - Sudamérica - Chile   Vie 6 Dic 2013 - 22:57

jajajajaj, es un buen muchacho! Aprecio el detalle Smile
Volver arriba Ir abajo
DanielJohns
Comandante
Comandante
avatar

Mensajes : 1816
Edad : 37
Localización : Ciudad de los Reyes
Fecha de inscripción : 04/02/2010

Masculino


MensajeTema: Re: 1ro - Sudamérica - Chile   Sáb 7 Dic 2013 - 20:53

Ir tan lejos y no dar una vuelta es un desperdicio, ahi van las caps.
Saludos









Volver arriba Ir abajo
http://xplaneperu.pe.hu
DanielJohns
Comandante
Comandante
avatar

Mensajes : 1816
Edad : 37
Localización : Ciudad de los Reyes
Fecha de inscripción : 04/02/2010

Masculino


MensajeTema: Re: 1ro - Sudamérica - Chile   Dom 15 Dic 2013 - 6:28

13/12/13
Octavo tramo: Santiago - Curicó (abortado/accidente)
Metar Santiago 140600Z 16005KT CAVOK 14/10 Q1011, metar esperado en curicó 150400Z AUTO VRB02KT 9999 NCD 16/11, pensaba llegar en aproximadamente una hora, calcule mal el tiempo a las 3/4 del tramo ya me quedaba sin luz recurrí a las cartas y vi una aeródromo en San Fernando pues allá!, mi sorpresa no iluminado para descensos nocturnos...........al no ver el final de la pista freno mucho antes........avión perdido.
Saludos






















Volver arriba Ir abajo
http://xplaneperu.pe.hu
DanielJohns
Comandante
Comandante
avatar

Mensajes : 1816
Edad : 37
Localización : Ciudad de los Reyes
Fecha de inscripción : 04/02/2010

Masculino


MensajeTema: Re: 1ro - Sudamérica - Chile   Dom 22 Dic 2013 - 21:05

17/12/13
Noveno tramo: San Fernando - Concepción
Metar en San Fernando 122000Z 21012KT CAVOK 29/17 Q1010, el esperado en Concepción 150200Z 06003KT CAVOK 16/11 Q1013, después del accidente con el 185 ya no tendré acceso a el, esta vez me espera un nuevo avión en Concepción, pero me tendrán que llevar así que voy como pasajero. El viaje muy cómodo y tranquilo sin ninguna novedad.
Saludos























Concepción






Volver arriba Ir abajo
http://xplaneperu.pe.hu
Contenido patrocinado




MensajeTema: Re: 1ro - Sudamérica - Chile   

Volver arriba Ir abajo
 
1ro - Sudamérica - Chile
Ver el tema anterior Ver el tema siguiente Volver arriba 
Página 2 de 2.Ir a la página : Precedente  1, 2
 Temas similares
-
» Recorriendo Sudamérica con FSX
» IMPORTANTE por chile y por el planeta
» Edición Aniversario 5 años TZ Chile
» Masa quimérica/chimeric mass
» [127] U de Chile Campeón Copa Sudamericana 2011

Permisos de este foro:No puedes responder a temas en este foro.
Escuadrón de Caza Nº41 :: Ala Microsoft Flight Simulator :: Debriefing-
Cambiar a: